sensor_id;sensor_type;location;lat;lon;timestamp;P1;durP1;ratioP1;P2;durP2;ratioP2
8213;SDS011;4148;47.974;7.824;2023-05-15T00:02:22;2.47;;;2.10;;
8213;SDS011;4148;47.974;7.824;2023-05-15T00:04:52;3.00;;;2.33;;
8213;SDS011;4148;47.974;7.824;2023-05-15T00:07:20;3.30;;;2.10;;
8213;SDS011;4148;47.974;7.824;2023-05-15T00:09:48;5.50;;;2.40;;
8213;SDS011;4148;47.974;7.824;2023-05-15T00:12:15;3.20;;;2.47;;
8213;SDS011;4148;47.974;7.824;2023-05-15T00:14:43;4.90;;;2.43;;
8213;SDS011;4148;47.974;7.824;2023-05-15T00:17:11;3.33;;;2.30;;
8213;SDS011;4148;47.974;7.824;2023-05-15T00:19:39;2.97;;;2.60;;
8213;SDS011;4148;47.974;7.824;2023-05-15T00:22:08;5.77;;;2.60;;
8213;SDS011;4148;47.974;7.824;2023-05-15T00:24:36;3.40;;;2.83;;
8213;SDS011;4148;47.974;7.824;2023-05-15T00:27:04;2.87;;;2.60;;
8213;SDS011;4148;47.974;7.824;2023-05-15T00:29:32;3.30;;;2.47;;
8213;SDS011;4148;47.974;7.824;2023-05-15T00:31:59;4.80;;;3.10;;
8213;SDS011;4148;47.974;7.824;2023-05-15T00:34:27;2.90;;;2.60;;
8213;SDS011;4148;47.974;7.824;2023-05-15T00:36:55;3.50;;;2.60;;
8213;SDS011;4148;47.974;7.824;2023-05-15T00:39:24;3.27;;;2.20;;
8213;SDS011;4148;47.974;7.824;2023-05-15T00:41:52;2.90;;;2.40;;
8213;SDS011;4148;47.974;7.824;2023-05-15T00:44:21;2.90;;;2.10;;
8213;SDS011;4148;47.974;7.824;2023-05-15T00:46:49;2.93;;;2.10;;
8213;SDS011;4148;47.974;7.824;2023-05-15T00:49:19;2.90;;;2.20;;
8213;SDS011;4148;47.974;7.824;2023-05-15T00:51:47;3.00;;;2.70;;
8213;SDS011;4148;47.974;7.824;2023-05-15T00:54:17;4.50;;;2.40;;
8213;SDS011;4148;47.974;7.824;2023-05-15T00:56:46;2.90;;;2.60;;
8213;SDS011;4148;47.974;7.824;2023-05-15T00:59:16;4.93;;;2.80;;
8213;SDS011;4148;47.974;7.824;2023-05-15T01:01:45;2.30;;;2.10;;
8213;SDS011;4148;47.974;7.824;2023-05-15T01:04:13;2.60;;;2.33;;
8213;SDS011;4148;47.974;7.824;2023-05-15T01:06:41;3.30;;;2.43;;
8213;SDS011;4148;47.974;7.824;2023-05-15T01:09:08;3.20;;;2.43;;
8213;SDS011;4148;47.974;7.824;2023-05-15T01:11:37;3.53;;;2.27;;
8213;SDS011;4148;47.974;7.824;2023-05-15T01:14:07;4.50;;;2.37;;
8213;SDS011;4148;47.974;7.824;2023-05-15T01:16:35;3.40;;;2.17;;
8213;SDS011;4148;47.974;7.824;2023-05-15T01:19:04;2.33;;;2.10;;
8213;SDS011;4148;47.974;7.824;2023-05-15T01:24:37;2.90;;;2.40;;
8213;SDS011;4148;47.974;7.824;2023-05-15T01:27:23;3.33;;;2.20;;
8213;SDS011;4148;47.974;7.824;2023-05-15T01:29:59;3.93;;;2.50;;
8213;SDS011;4148;47.974;7.824;2023-05-15T01:32:40;2.40;;;2.20;;
8213;SDS011;4148;47.974;7.824;2023-05-15T01:35:13;2.83;;;2.40;;
8213;SDS011;4148;47.974;7.824;2023-05-15T01:37:47;2.60;;;2.37;;
8213;SDS011;4148;47.974;7.824;2023-05-15T01:40:19;3.10;;;2.00;;
8213;SDS011;4148;47.974;7.824;2023-05-15T01:42:53;2.73;;;2.37;;
8213;SDS011;4148;47.974;7.824;2023-05-15T01:45:22;4.33;;;2.27;;
8213;SDS011;4148;47.974;7.824;2023-05-15T01:47:52;2.63;;;2.23;;
8213;SDS011;4148;47.974;7.824;2023-05-15T01:50:21;5.77;;;2.47;;
8213;SDS011;4148;47.974;7.824;2023-05-15T01:52:52;4.53;;;2.40;;
8213;SDS011;4148;47.974;7.824;2023-05-15T01:55:22;2.57;;;2.37;;
8213;SDS011;4148;47.974;7.824;2023-05-15T01:57:55;2.93;;;2.27;;
8213;SDS011;4148;47.974;7.824;2023-05-15T02:00:25;3.07;;;2.30;;
8213;SDS011;4148;47.974;7.824;2023-05-15T02:02:54;3.07;;;2.47;;
8213;SDS011;4148;47.974;7.824;2023-05-15T02:05:23;3.97;;;2.10;;
8213;SDS011;4148;47.974;7.824;2023-05-15T02:07:52;4.97;;;2.57;;
8213;SDS011;4148;47.974;7.824;2023-05-15T02:10:20;3.33;;;2.00;;
8213;SDS011;4148;47.974;7.824;2023-05-15T02:12:49;3.40;;;2.40;;
8213;SDS011;4148;47.974;7.824;2023-05-15T02:15:18;2.93;;;2.00;;
8213;SDS011;4148;47.974;7.824;2023-05-15T02:17:48;2.60;;;2.20;;
8213;SDS011;4148;47.974;7.824;2023-05-15T02:20:16;2.73;;;2.37;;
8213;SDS011;4148;47.974;7.824;2023-05-15T02:22:44;3.00;;;2.27;;
8213;SDS011;4148;47.974;7.824;2023-05-15T02:25:12;3.30;;;2.70;;
8213;SDS011;4148;47.974;7.824;2023-05-15T02:27:41;3.63;;;2.73;;
8213;SDS011;4148;47.974;7.824;2023-05-15T02:30:18;2.53;;;2.33;;
8213;SDS011;4148;47.974;7.824;2023-05-15T02:32:58;3.37;;;2.50;;
8213;SDS011;4148;47.974;7.824;2023-05-15T02:35:35;3.07;;;2.03;;
8213;SDS011;4148;47.974;7.824;2023-05-15T02:38:10;3.80;;;2.73;;
8213;SDS011;4148;47.974;7.824;2023-05-15T02:40:42;3.43;;;2.50;;
8213;SDS011;4148;47.974;7.824;2023-05-15T02:43:12;2.67;;;2.33;;
8213;SDS011;4148;47.974;7.824;2023-05-15T02:45:43;3.10;;;2.70;;
8213;SDS011;4148;47.974;7.824;2023-05-15T02:48:12;3.70;;;2.50;;
8213;SDS011;4148;47.974;7.824;2023-05-15T02:50:40;2.90;;;2.53;;
8213;SDS011;4148;47.974;7.824;2023-05-15T02:53:09;3.53;;;2.70;;
8213;SDS011;4148;47.974;7.824;2023-05-15T02:55:39;3.07;;;2.40;;
8213;SDS011;4148;47.974;7.824;2023-05-15T02:58:07;2.87;;;2.57;;
8213;SDS011;4148;47.974;7.824;2023-05-15T03:00:35;2.90;;;2.60;;
8213;SDS011;4148;47.974;7.824;2023-05-15T03:03:04;3.03;;;2.50;;
8213;SDS011;4148;47.974;7.824;2023-05-15T03:05:32;3.13;;;2.60;;
8213;SDS011;4148;47.974;7.824;2023-05-15T03:08:00;2.40;;;2.20;;
8213;SDS011;4148;47.974;7.824;2023-05-15T03:10:28;3.20;;;2.80;;
8213;SDS011;4148;47.974;7.824;2023-05-15T03:12:55;3.60;;;2.43;;
8213;SDS011;4148;47.974;7.824;2023-05-15T03:15:24;3.60;;;3.10;;
8213;SDS011;4148;47.974;7.824;2023-05-15T03:17:52;2.97;;;2.67;;
8213;SDS011;4148;47.974;7.824;2023-05-15T03:20:22;3.13;;;2.70;;
8213;SDS011;4148;47.974;7.824;2023-05-15T03:22:49;4.23;;;3.23;;
8213;SDS011;4148;47.974;7.824;2023-05-15T03:25:17;2.87;;;2.40;;
8213;SDS011;4148;47.974;7.824;2023-05-15T03:27:46;2.83;;;2.53;;
8213;SDS011;4148;47.974;7.824;2023-05-15T03:30:14;3.13;;;2.63;;
8213;SDS011;4148;47.974;7.824;2023-05-15T03:32:41;3.07;;;2.77;;
8213;SDS011;4148;47.974;7.824;2023-05-15T03:35:09;3.00;;;2.73;;
8213;SDS011;4148;47.974;7.824;2023-05-15T03:37:39;3.30;;;2.70;;
8213;SDS011;4148;47.974;7.824;2023-05-15T03:40:07;3.60;;;2.90;;
8213;SDS011;4148;47.974;7.824;2023-05-15T03:42:35;3.40;;;2.40;;
8213;SDS011;4148;47.974;7.824;2023-05-15T03:45:03;3.10;;;2.63;;
8213;SDS011;4148;47.974;7.824;2023-05-15T03:47:31;2.50;;;2.30;;
8213;SDS011;4148;47.974;7.824;2023-05-15T03:49:59;3.93;;;2.67;;
8213;SDS011;4148;47.974;7.824;2023-05-15T03:52:27;3.20;;;2.90;;
8213;SDS011;4148;47.974;7.824;2023-05-15T03:54:56;3.83;;;3.10;;
8213;SDS011;4148;47.974;7.824;2023-05-15T03:57:24;3.13;;;2.83;;
8213;SDS011;4148;47.974;7.824;2023-05-15T03:59:52;3.03;;;2.73;;
8213;SDS011;4148;47.974;7.824;2023-05-15T04:02:20;3.37;;;3.00;;
8213;SDS011;4148;47.974;7.824;2023-05-15T04:04:48;3.63;;;3.20;;
8213;SDS011;4148;47.974;7.824;2023-05-15T04:07:16;4.50;;;2.97;;
8213;SDS011;4148;47.974;7.824;2023-05-15T04:09:44;6.23;;;3.73;;
8213;SDS011;4148;47.974;7.824;2023-05-15T04:12:13;2.67;;;2.47;;
8213;SDS011;4148;47.974;7.824;2023-05-15T04:14:41;3.80;;;3.30;;
8213;SDS011;4148;47.974;7.824;2023-05-15T04:17:09;4.00;;;3.13;;
8213;SDS011;4148;47.974;7.824;2023-05-15T04:19:37;5.00;;;3.10;;
8213;SDS011;4148;47.974;7.824;2023-05-15T04:22:07;4.20;;;2.90;;
8213;SDS011;4148;47.974;7.824;2023-05-15T04:24:35;3.60;;;3.10;;
8213;SDS011;4148;47.974;7.824;2023-05-15T04:27:03;4.90;;;2.80;;
8213;SDS011;4148;47.974;7.824;2023-05-15T04:29:33;5.20;;;3.57;;
8213;SDS011;4148;47.974;7.824;2023-05-15T04:32:01;4.30;;;3.27;;
8213;SDS011;4148;47.974;7.824;2023-05-15T04:34:29;5.13;;;3.83;;
8213;SDS011;4148;47.974;7.824;2023-05-15T04:36:56;5.10;;;3.37;;
8213;SDS011;4148;47.974;7.824;2023-05-15T04:39:24;8.53;;;4.27;;
8213;SDS011;4148;47.974;7.824;2023-05-15T04:41:52;6.77;;;3.53;;
8213;SDS011;4148;47.974;7.824;2023-05-15T04:44:20;7.93;;;3.87;;
8213;SDS011;4148;47.974;7.824;2023-05-15T04:46:49;6.10;;;3.60;;
8213;SDS011;4148;47.974;7.824;2023-05-15T04:49:17;5.40;;;3.50;;
8213;SDS011;4148;47.974;7.824;2023-05-15T04:51:45;5.77;;;3.63;;
8213;SDS011;4148;47.974;7.824;2023-05-15T04:54:13;4.93;;;4.17;;
8213;SDS011;4148;47.974;7.824;2023-05-15T04:56:41;4.47;;;3.80;;
8213;SDS011;4148;47.974;7.824;2023-05-15T04:59:08;6.20;;;3.73;;
8213;SDS011;4148;47.974;7.824;2023-05-15T05:01:36;4.23;;;3.67;;
8213;SDS011;4148;47.974;7.824;2023-05-15T05:04:05;5.17;;;4.07;;
8213;SDS011;4148;47.974;7.824;2023-05-15T05:06:33;6.63;;;3.90;;
8213;SDS011;4148;47.974;7.824;2023-05-15T05:09:01;5.60;;;4.20;;
8213;SDS011;4148;47.974;7.824;2023-05-15T05:11:29;5.70;;;4.13;;
8213;SDS011;4148;47.974;7.824;2023-05-15T05:13:57;6.77;;;4.43;;
8213;SDS011;4148;47.974;7.824;2023-05-15T05:16:25;5.70;;;4.40;;
8213;SDS011;4148;47.974;7.824;2023-05-15T05:18:53;5.23;;;4.60;;
8213;SDS011;4148;47.974;7.824;2023-05-15T05:21:22;6.90;;;4.27;;
8213;SDS011;4148;47.974;7.824;2023-05-15T05:23:50;7.53;;;4.70;;
8213;SDS011;4148;47.974;7.824;2023-05-15T05:26:18;6.20;;;3.90;;
8213;SDS011;4148;47.974;7.824;2023-05-15T05:28:46;5.90;;;3.83;;
8213;SDS011;4148;47.974;7.824;2023-05-15T05:31:14;4.40;;;3.87;;
8213;SDS011;4148;47.974;7.824;2023-05-15T05:33:41;5.10;;;4.20;;
8213;SDS011;4148;47.974;7.824;2023-05-15T05:36:09;10.67;;;4.60;;
8213;SDS011;4148;47.974;7.824;2023-05-15T05:38:38;4.63;;;4.23;;
8213;SDS011;4148;47.974;7.824;2023-05-15T05:41:07;6.17;;;4.10;;
8213;SDS011;4148;47.974;7.824;2023-05-15T05:43:34;8.73;;;5.40;;
8213;SDS011;4148;47.974;7.824;2023-05-15T05:46:02;6.30;;;4.23;;
8213;SDS011;4148;47.974;7.824;2023-05-15T05:48:30;4.23;;;3.83;;
8213;SDS011;4148;47.974;7.824;2023-05-15T05:50:58;6.90;;;4.80;;
8213;SDS011;4148;47.974;7.824;2023-05-15T05:53:26;8.43;;;4.50;;
8213;SDS011;4148;47.974;7.824;2023-05-15T05:55:55;6.30;;;5.07;;
8213;SDS011;4148;47.974;7.824;2023-05-15T05:58:23;10.20;;;6.70;;
8213;SDS011;4148;47.974;7.824;2023-05-15T06:00:51;8.90;;;5.70;;
8213;SDS011;4148;47.974;7.824;2023-05-15T06:03:19;7.30;;;4.50;;
8213;SDS011;4148;47.974;7.824;2023-05-15T06:05:49;5.53;;;4.30;;
8213;SDS011;4148;47.974;7.824;2023-05-15T06:08:18;4.97;;;4.47;;
8213;SDS011;4148;47.974;7.824;2023-05-15T06:10:46;6.10;;;4.87;;
8213;SDS011;4148;47.974;7.824;2023-05-15T06:13:15;5.60;;;5.00;;
8213;SDS011;4148;47.974;7.824;2023-05-15T06:15:43;6.50;;;5.00;;
8213;SDS011;4148;47.974;7.824;2023-05-15T06:18:12;12.30;;;6.33;;
8213;SDS011;4148;47.974;7.824;2023-05-15T06:20:40;8.93;;;5.10;;
8213;SDS011;4148;47.974;7.824;2023-05-15T06:23:08;8.27;;;5.30;;
8213;SDS011;4148;47.974;7.824;2023-05-15T06:25:36;8.60;;;5.90;;
8213;SDS011;4148;47.974;7.824;2023-05-15T06:28:04;9.20;;;5.00;;
8213;SDS011;4148;47.974;7.824;2023-05-15T06:30:33;5.07;;;4.30;;
8213;SDS011;4148;47.974;7.824;2023-05-15T06:33:01;4.03;;;3.63;;
8213;SDS011;4148;47.974;7.824;2023-05-15T06:35:29;4.53;;;3.60;;
8213;SDS011;4148;47.974;7.824;2023-05-15T06:37:56;4.73;;;3.57;;
8213;SDS011;4148;47.974;7.824;2023-05-15T06:40:24;4.77;;;3.13;;
8213;SDS011;4148;47.974;7.824;2023-05-15T06:42:52;3.33;;;3.00;;
8213;SDS011;4148;47.974;7.824;2023-05-15T06:45:20;4.47;;;3.27;;
8213;SDS011;4148;47.974;7.824;2023-05-15T06:47:50;3.73;;;3.20;;
8213;SDS011;4148;47.974;7.824;2023-05-15T06:50:17;3.80;;;2.90;;
8213;SDS011;4148;47.974;7.824;2023-05-15T06:52:45;4.00;;;3.17;;
8213;SDS011;4148;47.974;7.824;2023-05-15T06:55:13;4.90;;;3.50;;
8213;SDS011;4148;47.974;7.824;2023-05-15T06:57:41;4.00;;;3.20;;
8213;SDS011;4148;47.974;7.824;2023-05-15T07:00:09;4.90;;;3.40;;
8213;SDS011;4148;47.974;7.824;2023-05-15T07:02:38;3.20;;;2.90;;
8213;SDS011;4148;47.974;7.824;2023-05-15T07:05:07;3.10;;;2.80;;
8213;SDS011;4148;47.974;7.824;2023-05-15T07:07:36;3.97;;;3.10;;
8213;SDS011;4148;47.974;7.824;2023-05-15T07:10:05;4.10;;;2.90;;
8213;SDS011;4148;47.974;7.824;2023-05-15T07:12:33;4.13;;;3.20;;
8213;SDS011;4148;47.974;7.824;2023-05-15T07:15:01;4.23;;;3.20;;
8213;SDS011;4148;47.974;7.824;2023-05-15T07:17:29;4.27;;;2.80;;
8213;SDS011;4148;47.974;7.824;2023-05-15T07:19:58;3.40;;;2.77;;
8213;SDS011;4148;47.974;7.824;2023-05-15T07:22:27;5.40;;;3.00;;
8213;SDS011;4148;47.974;7.824;2023-05-15T07:24:56;4.00;;;3.27;;
8213;SDS011;4148;47.974;7.824;2023-05-15T07:27:24;4.73;;;3.60;;
8213;SDS011;4148;47.974;7.824;2023-05-15T07:29:52;4.37;;;3.97;;
8213;SDS011;4148;47.974;7.824;2023-05-15T07:32:20;4.57;;;4.07;;
8213;SDS011;4148;47.974;7.824;2023-05-15T07:34:48;5.13;;;4.40;;
8213;SDS011;4148;47.974;7.824;2023-05-15T07:37:16;4.57;;;3.73;;
8213;SDS011;4148;47.974;7.824;2023-05-15T07:39:45;4.67;;;3.77;;
8213;SDS011;4148;47.974;7.824;2023-05-15T07:42:12;4.30;;;3.90;;
8213;SDS011;4148;47.974;7.824;2023-05-15T07:44:40;4.13;;;3.73;;
8213;SDS011;4148;47.974;7.824;2023-05-15T07:47:11;6.00;;;3.73;;
8213;SDS011;4148;47.974;7.824;2023-05-15T07:49:39;6.23;;;4.80;;
8213;SDS011;4148;47.974;7.824;2023-05-15T07:52:07;6.80;;;5.10;;
8213;SDS011;4148;47.974;7.824;2023-05-15T07:54:35;6.03;;;4.37;;
8213;SDS011;4148;47.974;7.824;2023-05-15T07:57:05;5.60;;;5.10;;
8213;SDS011;4148;47.974;7.824;2023-05-15T07:59:33;7.73;;;5.00;;
8213;SDS011;4148;47.974;7.824;2023-05-15T08:02:01;6.63;;;5.37;;
8213;SDS011;4148;47.974;7.824;2023-05-15T08:04:29;5.97;;;5.40;;
8213;SDS011;4148;47.974;7.824;2023-05-15T08:06:57;7.40;;;5.40;;
8213;SDS011;4148;47.974;7.824;2023-05-15T08:09:25;6.77;;;5.40;;
8213;SDS011;4148;47.974;7.824;2023-05-15T08:11:54;8.57;;;5.33;;
8213;SDS011;4148;47.974;7.824;2023-05-15T08:14:24;6.00;;;5.00;;
8213;SDS011;4148;47.974;7.824;2023-05-15T08:16:51;6.37;;;5.67;;
8213;SDS011;4148;47.974;7.824;2023-05-15T08:19:19;7.53;;;6.13;;
8213;SDS011;4148;47.974;7.824;2023-05-15T08:21:49;8.57;;;5.87;;
8213;SDS011;4148;47.974;7.824;2023-05-15T08:24:16;6.97;;;6.27;;
8213;SDS011;4148;47.974;7.824;2023-05-15T08:26:44;6.90;;;5.87;;
8213;SDS011;4148;47.974;7.824;2023-05-15T08:29:12;6.83;;;6.20;;
8213;SDS011;4148;47.974;7.824;2023-05-15T08:31:43;7.23;;;5.90;;
8213;SDS011;4148;47.974;7.824;2023-05-15T08:34:11;10.53;;;6.90;;
8213;SDS011;4148;47.974;7.824;2023-05-15T08:36:39;8.77;;;6.50;;
8213;SDS011;4148;47.974;7.824;2023-05-15T08:39:06;8.30;;;7.40;;
8213;SDS011;4148;47.974;7.824;2023-05-15T08:41:36;8.17;;;7.20;;
8213;SDS011;4148;47.974;7.824;2023-05-15T08:44:08;7.30;;;6.50;;
8213;SDS011;4148;47.974;7.824;2023-05-15T08:46:36;6.80;;;6.20;;
8213;SDS011;4148;47.974;7.824;2023-05-15T08:49:07;8.70;;;6.80;;
8213;SDS011;4148;47.974;7.824;2023-05-15T08:51:40;6.77;;;6.07;;
8213;SDS011;4148;47.974;7.824;2023-05-15T08:54:08;7.73;;;6.93;;
8213;SDS011;4148;47.974;7.824;2023-05-15T08:56:37;7.57;;;6.77;;
8213;SDS011;4148;47.974;7.824;2023-05-15T08:59:05;7.00;;;6.30;;
8213;SDS011;4148;47.974;7.824;2023-05-15T09:01:33;6.77;;;6.13;;
8213;SDS011;4148;47.974;7.824;2023-05-15T09:04:02;5.87;;;5.37;;
8213;SDS011;4148;47.974;7.824;2023-05-15T09:06:32;6.80;;;6.20;;
8213;SDS011;4148;47.974;7.824;2023-05-15T09:09:00;8.40;;;6.97;;
8213;SDS011;4148;47.974;7.824;2023-05-15T09:11:30;7.70;;;6.73;;
8213;SDS011;4148;47.974;7.824;2023-05-15T09:13:58;7.83;;;6.63;;
8213;SDS011;4148;47.974;7.824;2023-05-15T09:16:26;6.73;;;6.03;;
8213;SDS011;4148;47.974;7.824;2023-05-15T09:18:54;8.03;;;7.23;;
8213;SDS011;4148;47.974;7.824;2023-05-15T09:21:25;6.17;;;5.57;;
8213;SDS011;4148;47.974;7.824;2023-05-15T09:24:14;7.03;;;6.00;;
8213;SDS011;4148;47.974;7.824;2023-05-15T09:26:43;6.77;;;6.10;;
8213;SDS011;4148;47.974;7.824;2023-05-15T09:29:13;8.67;;;6.50;;
8213;SDS011;4148;47.974;7.824;2023-05-15T09:31:44;7.97;;;6.93;;
8213;SDS011;4148;47.974;7.824;2023-05-15T09:34:13;7.50;;;6.73;;
8213;SDS011;4148;47.974;7.824;2023-05-15T09:36:41;8.13;;;6.53;;
8213;SDS011;4148;47.974;7.824;2023-05-15T09:39:11;6.40;;;5.80;;
8213;SDS011;4148;47.974;7.824;2023-05-15T09:41:40;6.40;;;5.60;;
8213;SDS011;4148;47.974;7.824;2023-05-15T09:44:16;6.43;;;5.50;;
8213;SDS011;4148;47.974;7.824;2023-05-15T09:46:47;6.20;;;5.60;;
8213;SDS011;4148;47.974;7.824;2023-05-15T09:49:16;5.80;;;5.20;;
8213;SDS011;4148;47.974;7.824;2023-05-15T09:51:45;5.40;;;4.90;;
8213;SDS011;4148;47.974;7.824;2023-05-15T09:54:15;5.10;;;4.60;;
8213;SDS011;4148;47.974;7.824;2023-05-15T09:56:44;5.87;;;4.90;;
8213;SDS011;4148;47.974;7.824;2023-05-15T09:59:13;5.33;;;4.80;;
8213;SDS011;4148;47.974;7.824;2023-05-15T10:01:42;8.07;;;5.83;;
8213;SDS011;4148;47.974;7.824;2023-05-15T10:04:11;6.20;;;5.60;;
8213;SDS011;4148;47.974;7.824;2023-05-15T10:06:40;6.03;;;5.43;;
8213;SDS011;4148;47.974;7.824;2023-05-15T10:09:09;6.07;;;5.47;;
8213;SDS011;4148;47.974;7.824;2023-05-15T10:11:40;6.20;;;4.83;;
8213;SDS011;4148;47.974;7.824;2023-05-15T10:14:09;5.00;;;4.50;;
8213;SDS011;4148;47.974;7.824;2023-05-15T10:16:38;5.50;;;4.73;;
8213;SDS011;4148;47.974;7.824;2023-05-15T10:19:07;4.60;;;4.20;;
8213;SDS011;4148;47.974;7.824;2023-05-15T10:21:37;4.80;;;4.20;;
8213;SDS011;4148;47.974;7.824;2023-05-15T10:24:06;3.70;;;3.40;;
8213;SDS011;4148;47.974;7.824;2023-05-15T10:26:35;4.20;;;3.80;;
8213;SDS011;4148;47.974;7.824;2023-05-15T10:29:07;4.90;;;3.73;;
8213;SDS011;4148;47.974;7.824;2023-05-15T10:31:36;5.00;;;4.60;;
8213;SDS011;4148;47.974;7.824;2023-05-15T10:34:05;4.20;;;3.80;;
8213;SDS011;4148;47.974;7.824;2023-05-15T10:36:34;6.60;;;3.20;;
8213;SDS011;4148;47.974;7.824;2023-05-15T10:39:04;3.97;;;3.30;;
8213;SDS011;4148;47.974;7.824;2023-05-15T10:41:35;3.40;;;3.10;;
8213;SDS011;4148;47.974;7.824;2023-05-15T10:44:05;3.70;;;3.40;;
8213;SDS011;4148;47.974;7.824;2023-05-15T10:46:34;3.33;;;3.03;;
8213;SDS011;4148;47.974;7.824;2023-05-15T10:49:02;4.10;;;3.70;;
8213;SDS011;4148;47.974;7.824;2023-05-15T10:51:30;3.40;;;3.10;;
8213;SDS011;4148;47.974;7.824;2023-05-15T10:54:01;4.10;;;3.33;;
8213;SDS011;4148;47.974;7.824;2023-05-15T10:56:30;3.33;;;3.00;;
8213;SDS011;4148;47.974;7.824;2023-05-15T10:59:03;3.47;;;3.17;;
8213;SDS011;4148;47.974;7.824;2023-05-15T11:01:34;3.63;;;2.87;;
8213;SDS011;4148;47.974;7.824;2023-05-15T11:04:06;3.47;;;3.17;;
8213;SDS011;4148;47.974;7.824;2023-05-15T11:06:36;4.40;;;3.63;;
8213;SDS011;4148;47.974;7.824;2023-05-15T11:12:04;3.27;;;2.97;;
8213;SDS011;4148;47.974;7.824;2023-05-15T11:14:36;4.43;;;3.60;;
8213;SDS011;4148;47.974;7.824;2023-05-15T11:17:05;5.07;;;4.23;;
8213;SDS011;4148;47.974;7.824;2023-05-15T11:19:36;3.47;;;3.17;;
8213;SDS011;4148;47.974;7.824;2023-05-15T11:22:16;3.87;;;3.57;;
8213;SDS011;4148;47.974;7.824;2023-05-15T11:24:52;4.50;;;4.10;;
8213;SDS011;4148;47.974;7.824;2023-05-15T11:27:22;4.43;;;3.90;;
8213;SDS011;4148;47.974;7.824;2023-05-15T11:30:09;3.53;;;3.20;;
8213;SDS011;4148;47.974;7.824;2023-05-15T11:32:40;5.67;;;4.57;;
8213;SDS011;4148;47.974;7.824;2023-05-15T11:35:23;5.13;;;4.70;;
8213;SDS011;4148;47.974;7.824;2023-05-15T11:37:54;5.10;;;4.60;;
8213;SDS011;4148;47.974;7.824;2023-05-15T11:40:24;4.70;;;4.30;;
8213;SDS011;4148;47.974;7.824;2023-05-15T11:45:47;6.47;;;4.93;;
8213;SDS011;4148;47.974;7.824;2023-05-15T11:48:17;4.90;;;4.50;;
8213;SDS011;4148;47.974;7.824;2023-05-15T11:50:46;4.90;;;4.50;;
8213;SDS011;4148;47.974;7.824;2023-05-15T11:53:14;4.70;;;4.30;;
8213;SDS011;4148;47.974;7.824;2023-05-15T11:55:43;5.90;;;5.00;;
8213;SDS011;4148;47.974;7.824;2023-05-15T11:58:11;6.40;;;4.70;;
8213;SDS011;4148;47.974;7.824;2023-05-15T12:00:40;6.00;;;5.40;;
8213;SDS011;4148;47.974;7.824;2023-05-15T12:03:17;5.87;;;5.37;;
8213;SDS011;4148;47.974;7.824;2023-05-15T12:05:47;4.70;;;4.30;;
8213;SDS011;4148;47.974;7.824;2023-05-15T12:08:24;7.40;;;5.03;;
8213;SDS011;4148;47.974;7.824;2023-05-15T12:10:51;6.97;;;5.60;;
8213;SDS011;4148;47.974;7.824;2023-05-15T12:13:19;6.40;;;5.27;;
8213;SDS011;4148;47.974;7.824;2023-05-15T12:15:47;5.87;;;5.33;;
8213;SDS011;4148;47.974;7.824;2023-05-15T12:18:16;5.77;;;5.27;;
8213;SDS011;4148;47.974;7.824;2023-05-15T12:20:44;6.47;;;5.53;;
8213;SDS011;4148;47.974;7.824;2023-05-15T12:23:13;5.40;;;4.90;;
8213;SDS011;4148;47.974;7.824;2023-05-15T12:25:43;6.50;;;5.20;;
8213;SDS011;4148;47.974;7.824;2023-05-15T12:28:12;5.13;;;4.63;;
8213;SDS011;4148;47.974;7.824;2023-05-15T12:30:41;8.13;;;5.47;;
8213;SDS011;4148;47.974;7.824;2023-05-15T12:33:09;6.70;;;5.57;;
8213;SDS011;4148;47.974;7.824;2023-05-15T12:35:41;5.93;;;5.27;;
8213;SDS011;4148;47.974;7.824;2023-05-15T12:38:12;5.40;;;4.73;;
8213;SDS011;4148;47.974;7.824;2023-05-15T12:40:42;7.23;;;5.00;;
8213;SDS011;4148;47.974;7.824;2023-05-15T12:43:11;7.00;;;5.40;;
8213;SDS011;4148;47.974;7.824;2023-05-15T12:45:40;4.77;;;4.37;;
8213;SDS011;4148;47.974;7.824;2023-05-15T12:48:11;5.90;;;5.00;;
8213;SDS011;4148;47.974;7.824;2023-05-15T12:50:42;5.50;;;4.90;;
8213;SDS011;4148;47.974;7.824;2023-05-15T12:53:11;5.47;;;4.90;;
8213;SDS011;4148;47.974;7.824;2023-05-15T12:55:41;8.37;;;4.97;;
8213;SDS011;4148;47.974;7.824;2023-05-15T12:58:11;5.10;;;4.20;;
8213;SDS011;4148;47.974;7.824;2023-05-15T13:00:40;6.13;;;4.53;;
8213;SDS011;4148;47.974;7.824;2023-05-15T13:03:10;5.23;;;4.73;;
8213;SDS011;4148;47.974;7.824;2023-05-15T13:05:42;4.40;;;3.83;;
8213;SDS011;4148;47.974;7.824;2023-05-15T13:08:13;4.00;;;3.53;;
8213;SDS011;4148;47.974;7.824;2023-05-15T13:10:43;4.10;;;3.70;;
8213;SDS011;4148;47.974;7.824;2023-05-15T13:13:11;4.20;;;3.80;;
8213;SDS011;4148;47.974;7.824;2023-05-15T13:15:41;4.53;;;4.10;;
8213;SDS011;4148;47.974;7.824;2023-05-15T13:18:10;4.53;;;4.13;;
8213;SDS011;4148;47.974;7.824;2023-05-15T13:20:42;4.77;;;3.87;;
8213;SDS011;4148;47.974;7.824;2023-05-15T13:23:16;5.30;;;4.30;;
8213;SDS011;4148;47.974;7.824;2023-05-15T13:25:45;4.40;;;4.00;;
8213;SDS011;4148;47.974;7.824;2023-05-15T13:28:14;5.47;;;4.97;;
8213;SDS011;4148;47.974;7.824;2023-05-15T13:30:41;5.03;;;4.53;;
8213;SDS011;4148;47.974;7.824;2023-05-15T13:33:10;5.30;;;4.10;;
8213;SDS011;4148;47.974;7.824;2023-05-15T13:35:39;4.47;;;4.07;;
8213;SDS011;4148;47.974;7.824;2023-05-15T13:38:30;4.83;;;3.90;;
8213;SDS011;4148;47.974;7.824;2023-05-15T13:40:58;4.10;;;3.77;;
8213;SDS011;4148;47.974;7.824;2023-05-15T13:43:26;3.97;;;3.57;;
8213;SDS011;4148;47.974;7.824;2023-05-15T13:45:54;5.10;;;3.50;;
8213;SDS011;4148;47.974;7.824;2023-05-15T13:48:22;4.17;;;3.60;;
8213;SDS011;4148;47.974;7.824;2023-05-15T13:50:49;4.13;;;3.47;;
8213;SDS011;4148;47.974;7.824;2023-05-15T13:53:17;3.90;;;3.50;;
8213;SDS011;4148;47.974;7.824;2023-05-15T13:55:47;5.10;;;3.40;;
8213;SDS011;4148;47.974;7.824;2023-05-15T13:58:15;4.57;;;3.57;;
8213;SDS011;4148;47.974;7.824;2023-05-15T14:00:43;7.37;;;4.40;;
8213;SDS011;4148;47.974;7.824;2023-05-15T14:03:11;4.20;;;3.80;;
8213;SDS011;4148;47.974;7.824;2023-05-15T14:05:40;3.40;;;3.10;;
8213;SDS011;4148;47.974;7.824;2023-05-15T14:08:08;3.43;;;3.13;;
8213;SDS011;4148;47.974;7.824;2023-05-15T14:10:36;5.40;;;3.43;;
8213;SDS011;4148;47.974;7.824;2023-05-15T14:13:05;3.33;;;3.03;;
8213;SDS011;4148;47.974;7.824;2023-05-15T14:15:37;3.40;;;3.10;;
8213;SDS011;4148;47.974;7.824;2023-05-15T14:18:05;7.30;;;4.10;;
8213;SDS011;4148;47.974;7.824;2023-05-15T14:20:35;4.50;;;3.47;;
8213;SDS011;4148;47.974;7.824;2023-05-15T14:23:03;3.77;;;3.47;;
8213;SDS011;4148;47.974;7.824;2023-05-15T14:25:30;3.30;;;3.00;;
8213;SDS011;4148;47.974;7.824;2023-05-15T14:27:58;3.53;;;3.23;;
8213;SDS011;4148;47.974;7.824;2023-05-15T14:30:27;3.70;;;3.10;;
8213;SDS011;4148;47.974;7.824;2023-05-15T14:32:55;3.70;;;3.40;;
8213;SDS011;4148;47.974;7.824;2023-05-15T14:35:23;5.17;;;3.13;;
8213;SDS011;4148;47.974;7.824;2023-05-15T14:37:51;3.67;;;3.27;;
8213;SDS011;4148;47.974;7.824;2023-05-15T14:40:18;3.53;;;3.23;;
8213;SDS011;4148;47.974;7.824;2023-05-15T14:42:46;4.60;;;3.30;;
8213;SDS011;4148;47.974;7.824;2023-05-15T14:45:14;4.23;;;3.67;;
8213;SDS011;4148;47.974;7.824;2023-05-15T14:47:43;4.80;;;3.80;;
8213;SDS011;4148;47.974;7.824;2023-05-15T14:50:11;5.97;;;5.37;;
8213;SDS011;4148;47.974;7.824;2023-05-15T14:52:39;4.77;;;4.33;;
8213;SDS011;4148;47.974;7.824;2023-05-15T14:55:07;4.60;;;4.00;;
8213;SDS011;4148;47.974;7.824;2023-05-15T14:57:35;5.40;;;3.73;;
8213;SDS011;4148;47.974;7.824;2023-05-15T15:00:04;7.23;;;4.20;;
8213;SDS011;4148;47.974;7.824;2023-05-15T15:02:33;4.00;;;3.57;;
8213;SDS011;4148;47.974;7.824;2023-05-15T15:05:03;3.77;;;3.37;;
8213;SDS011;4148;47.974;7.824;2023-05-15T15:07:31;4.83;;;4.33;;
8213;SDS011;4148;47.974;7.824;2023-05-15T15:10:26;4.83;;;4.07;;
8213;SDS011;4148;47.974;7.824;2023-05-15T15:12:55;3.77;;;3.47;;
8213;SDS011;4148;47.974;7.824;2023-05-15T15:15:23;4.40;;;4.00;;
8213;SDS011;4148;47.974;7.824;2023-05-15T15:17:51;4.33;;;3.93;;
8213;SDS011;4148;47.974;7.824;2023-05-15T15:20:25;4.60;;;3.90;;
8213;SDS011;4148;47.974;7.824;2023-05-15T15:23:05;4.20;;;3.80;;
8213;SDS011;4148;47.974;7.824;2023-05-15T15:25:33;6.67;;;5.13;;
8213;SDS011;4148;47.974;7.824;2023-05-15T15:28:01;4.07;;;3.60;;
8213;SDS011;4148;47.974;7.824;2023-05-15T15:30:29;4.60;;;3.93;;
8213;SDS011;4148;47.974;7.824;2023-05-15T15:32:57;5.40;;;3.63;;
8213;SDS011;4148;47.974;7.824;2023-05-15T15:35:27;5.40;;;3.70;;
8213;SDS011;4148;47.974;7.824;2023-05-15T15:37:55;3.50;;;3.13;;